Time;durP1;ratioP1;P1;durP2;ratioP2;P2;SDS_P1;SDS_P2;PMS_P1;PMS_P2;Temp;Humidity;BMP_temperature;BMP_pressure;BME280_temperature;BME280_humidity;BME280_pressure;Samples;Min_cycle;Max_cycle;Signal;HPM_P1;HPM_P2
2022/08/14 00:01:14;;;;;;;6.40;4.07;;;;;;;21.87;91.84;100994.69;5014149;28;21028;-70
2022/08/14 00:03:42;;;;;;;6.60;3.90;;;;;;;21.82;92.10;100994.19;5016261;28;20527;-70
2022/08/14 00:06:09;;;;;;;7.33;4.33;;;;;;;21.79;92.40;100994.94;5015017;28;20853;-70
2022/08/14 00:08:36;;;;;;;5.47;3.67;;;;;;;21.76;92.66;100993.69;5014747;28;20856;-70
2022/08/14 00:11:02;;;;;;;5.40;3.70;;;;;;;21.69;93.02;100987.25;5014726;28;20460;-74
2022/08/14 00:13:29;;;;;;;6.30;3.87;;;;;;;21.60;92.72;100984.72;5014606;28;20454;-73
2022/08/14 00:15:58;;;;;;;7.87;3.80;;;;;;;21.57;93.26;100980.78;5014573;28;20467;-70
2022/08/14 00:18:26;;;;;;;6.17;3.73;;;;;;;21.54;93.19;100988.97;5014497;28;20820;-69
2022/08/14 00:20:55;;;;;;;7.43;3.80;;;;;;;21.54;93.25;100994.47;5014110;28;20460;-69
2022/08/14 00:23:21;;;;;;;7.13;4.10;;;;;;;21.50;93.57;100988.09;5014444;28;20444;-69
2022/08/14 00:25:50;;;;;;;6.63;3.40;;;;;;;21.47;93.47;100986.88;5013922;28;20855;-69
2022/08/14 00:28:17;;;;;;;7.63;4.53;;;;;;;21.44;93.63;100986.81;5014378;28;20451;-69
2022/08/14 00:30:45;;;;;;;5.97;3.47;;;;;;;21.41;93.62;100993.84;5014228;28;20470;-69
2022/08/14 00:33:11;;;;;;;6.60;3.77;;;;;;;21.41;93.52;100991.88;5014273;28;20526;-69
2022/08/14 00:35:38;;;;;;;6.33;3.57;;;;;;;21.37;94.07;100988.25;5013876;28;20451;-69
2022/08/14 00:38:05;;;;;;;9.67;4.13;;;;;;;21.31;94.21;100975.94;5014188;28;20440;-69
2022/08/14 00:40:32;;;;;;;6.23;3.80;;;;;;;21.26;93.93;100984.47;5014034;28;20463;-69
2022/08/14 00:42:58;;;;;;;5.97;3.60;;;;;;;21.27;94.79;100982.53;5013805;28;20447;-69
2022/08/14 00:45:26;;;;;;;6.27;3.97;;;;;;;21.22;94.50;100977.31;5014100;28;20906;-69
2022/08/14 00:47:53;;;;;;;7.87;4.20;;;;;;;21.18;94.41;100968.97;5014024;28;20452;-69
2022/08/14 00:50:21;;;;;;;5.90;4.00;;;;;;;21.17;94.22;100978.41;5013868;28;20467;-68
2022/08/14 00:52:51;;;;;;;6.70;4.13;;;;;;;21.11;94.63;100974.31;5013982;28;20443;-69
2022/08/14 00:55:20;;;;;;;4.87;3.10;;;;;;;21.09;94.96;100976.66;5013598;28;20444;-69
2022/08/14 00:58:29;;;;;;;5.00;3.23;;;;;;;21.05;94.66;100967.53;5013854;28;20444;-69
2022/08/14 01:00:35;;;;;;;6.20;3.70;;;;;;;21.06;94.73;100964.38;5013159;28;20474;-69
2022/08/14 01:03:03;;;;;;;4.93;3.20;;;;;;;21.04;94.83;100963.19;5013504;28;20938;-69
2022/08/14 01:05:30;;;;;;;6.80;3.83;;;;;;;21.00;94.99;100957.59;5013727;28;20483;-69
2022/08/14 01:07:58;;;;;;;5.67;3.37;;;;;;;20.94;95.08;100963.75;5013716;28;20444;-69
2022/08/14 01:10:49;;;;;;;6.93;4.43;;;;;;;20.89;95.71;100960.13;5013258;28;20981;-69
2022/08/14 01:13:16;;;;;;;6.13;3.40;;;;;;;20.85;95.47;100964.78;5012758;28;20432;-69
2022/08/14 01:15:43;;;;;;;6.60;3.93;;;;;;;20.82;95.78;100965.50;5013352;28;20494;-69
2022/08/14 01:21:05;;;;;;;5.67;3.80;;;;;;;20.80;96.13;100964.25;5013462;28;20467;-69
2022/08/14 01:23:34;;;;;;;6.13;3.77;;;;;;;20.75;96.05;100959.03;5013572;28;20427;-69
2022/08/14 01:26:01;;;;;;;8.03;4.00;;;;;;;20.72;96.36;100955.06;5013158;28;21023;-69
2022/08/14 01:28:30;;;;;;;5.33;3.70;;;;;;;20.66;96.21;100953.72;5013195;28;20444;-69
2022/08/14 01:30:57;;;;;;;7.43;4.23;;;;;;;20.63;96.17;100965.47;5013446;28;20668;-69
2022/08/14 01:33:27;;;;;;;7.80;4.40;;;;;;;20.61;96.89;100948.50;5013431;28;20495;-69
2022/08/14 01:35:55;;;;;;;6.40;4.20;;;;;;;20.60;96.32;100957.94;5013431;28;20440;-69
2022/08/14 01:38:22;;;;;;;7.63;3.57;;;;;;;20.59;96.86;100959.09;5013417;28;20476;-69
2022/08/14 01:40:50;;;;;;;6.87;4.30;;;;;;;20.63;96.60;100951.72;5013295;28;20535;-70
2022/08/14 01:43:17;;;;;;;6.40;3.70;;;;;;;20.62;96.98;100953.63;5013023;28;20455;-70
2022/08/14 01:45:45;;;;;;;5.30;3.37;;;;;;;20.64;96.50;100956.06;5012926;28;21039;-70
2022/08/14 01:48:12;;;;;;;8.63;4.03;;;;;;;20.65;96.76;100960.41;5012995;28;20814;-70
2022/08/14 01:50:40;;;;;;;7.70;4.10;;;;;;;20.65;96.21;100954.88;5013179;28;20479;-70
2022/08/14 01:53:07;;;;;;;9.83;4.87;;;;;;;20.67;96.24;100958.06;5013291;28;20455;-70
2022/08/14 01:55:34;;;;;;;6.03;4.03;;;;;;;20.71;95.84;100958.94;5013195;28;20808;-70
2022/08/14 01:58:02;;;;;;;6.67;3.97;;;;;;;20.74;96.60;100960.97;5013179;28;20490;-70
2022/08/14 02:00:29;;;;;;;7.17;4.00;;;;;;;20.75;96.01;100959.81;5012894;28;20468;-70
2022/08/14 02:02:57;;;;;;;6.43;4.60;;;;;;;20.77;96.16;100956.72;5012955;28;20435;-70
2022/08/14 02:05:30;;;;;;;6.90;4.47;;;;;;;20.77;95.49;100954.75;5013154;28;20448;-70
2022/08/14 02:07:56;;;;;;;6.67;3.93;;;;;;;20.77;95.85;100965.78;5012930;28;20799;-70
2022/08/14 02:10:23;;;;;;;6.77;4.30;;;;;;;20.78;96.13;100952.81;5012736;28;20464;-70
2022/08/14 02:12:49;;;;;;;8.47;5.13;;;;;;;20.78;96.50;100953.59;5013127;28;20447;-69
2022/08/14 02:15:20;;;;;;;5.87;3.67;;;;;;;20.81;96.46;100944.63;5013089;28;20484;-69
2022/08/14 02:17:47;;;;;;;7.77;4.90;;;;;;;20.81;96.56;100952.88;5013174;28;20428;-69
2022/08/14 02:20:14;;;;;;;6.67;3.90;;;;;;;20.83;96.08;100956.06;5012961;28;20460;-68
2022/08/14 02:22:41;;;;;;;6.20;4.20;;;;;;;20.87;95.95;100956.94;5012670;28;20949;-69
2022/08/14 02:25:09;;;;;;;7.13;4.10;;;;;;;20.89;95.95;100954.63;5013954;28;20454;-69
2022/08/14 02:27:36;;;;;;;7.30;4.13;;;;;;;20.90;96.22;100949.91;5016468;28;21027;-69
2022/08/14 02:30:02;;;;;;;8.40;4.80;;;;;;;20.92;96.37;100958.59;5016495;28;20531;-69
2022/08/14 02:32:32;;;;;;;7.37;3.80;;;;;;;20.91;96.23;100948.75;5016241;28;20937;-69
2022/08/14 02:34:59;;;;;;;7.80;4.80;;;;;;;20.90;96.14;100942.44;5016730;28;20448;-69
2022/08/14 02:37:26;;;;;;;6.50;3.80;;;;;;;20.94;95.91;100944.47;5016715;28;20440;-69
2022/08/14 02:39:52;;;;;;;7.53;4.20;;;;;;;20.94;96.00;100941.72;5016336;28;20498;-69
2022/08/14 02:42:20;;;;;;;7.90;4.70;;;;;;;20.96;96.00;100936.66;5016295;28;20439;-70
2022/08/14 02:44:48;;;;;;;6.90;4.57;;;;;;;20.97;96.36;100938.22;5016277;28;20494;-70
2022/08/14 02:47:16;;;;;;;6.50;3.53;;;;;;;20.98;96.27;100934.31;5015950;28;20574;-70
2022/08/14 02:49:44;;;;;;;7.07;4.23;;;;;;;21.00;96.14;100932.81;5016409;28;20455;-69
2022/08/14 02:52:11;;;;;;;8.40;5.00;;;;;;;21.03;96.29;100926.56;5015743;28;20969;-69
2022/08/14 02:54:39;;;;;;;8.40;4.10;;;;;;;21.00;96.39;100921.00;5016065;28;20448;-70
2022/08/14 02:57:05;;;;;;;7.10;4.70;;;;;;;20.99;96.44;100924.91;5016120;28;20539;-70
2022/08/14 02:59:33;;;;;;;12.40;5.53;;;;;;;21.03;95.98;100923.81;5015924;28;20559;-71
2022/08/14 03:02:00;;;;;;;6.60;4.70;;;;;;;21.03;96.11;100921.06;5015536;28;20490;-73
2022/08/14 03:04:28;;;;;;;8.27;4.70;;;;;;;21.03;96.57;100928.50;5015873;28;20452;-75
2022/08/14 03:06:56;;;;;;;8.70;4.33;;;;;;;21.02;95.80;100918.66;5015911;28;20480;-71
2022/08/14 03:09:23;;;;;;;6.70;3.67;;;;;;;21.00;96.11;100918.25;5015879;28;20444;-71
2022/08/14 03:11:49;;;;;;;7.83;4.37;;;;;;;21.01;96.08;100917.06;5015722;28;20516;-68
2022/08/14 03:14:16;;;;;;;5.80;3.60;;;;;;;21.01;96.30;100917.06;5015724;28;20454;-68
2022/08/14 03:16:44;;;;;;;7.20;4.43;;;;;;;21.03;96.17;100909.22;5015729;28;20523;-69
2022/08/14 03:19:11;;;;;;;9.50;3.73;;;;;;;21.02;96.58;100911.19;5015643;28;20452;-69
2022/08/14 03:21:38;;;;;;;6.27;3.93;;;;;;;21.02;96.90;100908.44;5015184;28;20463;-68
2022/08/14 03:24:10;;;;;;;7.53;4.40;;;;;;;21.01;96.86;100906.06;5015591;28;20475;-68
2022/08/14 03:26:38;;;;;;;6.93;4.33;;;;;;;21.02;96.66;100913.94;5015437;28;20475;-69
2022/08/14 03:29:06;;;;;;;8.10;4.73;;;;;;;21.01;96.27;100908.81;5015432;28;20448;-68
2022/08/14 03:31:33;;;;;;;7.03;4.20;;;;;;;21.04;96.34;100905.34;5015315;28;20464;-68
2022/08/14 03:34:00;;;;;;;5.60;3.90;;;;;;;21.02;96.87;100902.13;5015438;28;20444;-68
2022/08/14 03:36:26;;;;;;;8.80;4.30;;;;;;;21.02;96.97;100907.63;5014860;28;20440;-68
2022/08/14 03:38:56;;;;;;;5.47;3.60;;;;;;;20.98;96.56;100901.25;5015291;28;20464;-68
2022/08/14 03:41:26;;;;;;;7.93;4.53;;;;;;;20.97;96.51;100914.25;5015137;28;20471;-68
2022/08/14 03:43:55;;;;;;;5.63;3.90;;;;;;;21.00;97.11;100910.78;5014852;28;20451;-68
2022/08/14 03:46:22;;;;;;;7.20;4.70;;;;;;;21.04;96.65;100916.34;5015072;28;20579;-68
2022/08/14 03:48:49;;;;;;;7.80;5.10;;;;;;;21.04;96.71;100913.59;5015103;28;20493;-69
2022/08/14 03:51:15;;;;;;;5.93;4.13;;;;;;;20.99;96.81;100909.19;5014965;28;20464;-68
2022/08/14 03:53:45;;;;;;;7.67;4.13;;;;;;;21.01;96.62;100912.34;5014998;28;20448;-68
2022/08/14 03:56:13;;;;;;;6.93;4.60;;;;;;;21.00;96.69;100908.00;5014944;28;20494;-69
2022/08/14 03:58:44;;;;;;;7.50;4.70;;;;;;;21.01;96.43;100906.84;5014871;28;20448;-69
2022/08/14 04:01:11;;;;;;;7.47;4.03;;;;;;;21.01;96.17;100906.06;5014663;28;20519;-69
2022/08/14 04:03:38;;;;;;;6.63;4.50;;;;;;;20.99;96.82;100908.38;5014520;28;20958;-69
2022/08/14 04:06:04;;;;;;;6.03;3.87;;;;;;;20.97;96.48;100905.97;5014686;28;20448;-69
2022/08/14 04:08:35;;;;;;;6.77;4.10;;;;;;;20.99;96.58;100900.13;5014367;28;20444;-69
2022/08/14 04:11:01;;;;;;;8.33;5.10;;;;;;;21.02;96.46;100899.38;5014597;28;20487;-69
2022/08/14 04:13:28;;;;;;;6.70;4.13;;;;;;;20.99;97.02;100898.16;5014569;28;20447;-69
2022/08/14 04:15:56;;;;;;;14.60;5.10;;;;;;;20.99;96.88;100898.16;5014568;28;20494;-70
2022/08/14 04:18:23;;;;;;;7.13;4.63;;;;;;;21.01;96.52;100906.06;5014558;28;20452;-70
2022/08/14 04:20:49;;;;;;;6.63;4.40;;;;;;;20.99;96.16;100900.13;5014361;28;20459;-70
2022/08/14 04:23:16;;;;;;;6.53;4.20;;;;;;;20.97;96.57;100902.44;5014452;28;20454;-70
2022/08/14 04:25:43;;;;;;;10.60;4.73;;;;;;;20.98;97.09;100907.56;5014397;28;20473;-70
2022/08/14 04:28:13;;;;;;;5.90;3.60;;;;;;;21.02;96.86;100904.88;5014260;28;20484;-70
2022/08/14 04:30:40;;;;;;;8.63;4.40;;;;;;;20.99;97.08;100900.13;5014000;28;20504;-70
2022/08/14 04:33:09;;;;;;;6.60;3.60;;;;;;;20.95;96.56;100897.28;5014289;28;20791;-70
2022/08/14 04:35:36;;;;;;;7.13;4.80;;;;;;;20.96;97.36;100901.63;5014273;28;20488;-70
2022/08/14 04:43:37;;;;;;;8.47;4.27;;;;;;;21.07;96.55;100894.38;5014053;28;20450;-70
2022/08/14 04:46:04;;;;;;;5.80;4.10;;;;;;;21.12;96.15;100898.81;5014067;28;20534;-70
2022/08/14 04:48:32;;;;;;;8.00;4.90;;;;;;;21.11;96.74;100889.72;5013132;28;20488;-70
2022/08/14 04:51:00;;;;;;;6.20;4.20;;;;;;;21.14;96.45;100888.19;5013985;28;20474;-70
2022/08/14 04:53:30;;;;;;;10.13;4.90;;;;;;;21.15;96.85;100887.03;5013916;28;20796;-70
2022/08/14 04:55:57;;;;;;;12.93;4.53;;;;;;;21.16;96.83;100896.88;5013876;28;20490;-70
2022/08/14 04:58:25;;;;;;;8.57;4.73;;;;;;;21.20;96.34;100897.75;5013798;28;20440;-70
2022/08/14 05:00:53;;;;;;;8.60;5.17;;;;;;;21.23;97.05;100899.78;5013598;28;20487;-70
2022/08/14 05:03:21;;;;;;;7.57;4.60;;;;;;;21.27;97.12;100892.38;5013908;28;20452;-70
2022/08/14 05:05:50;;;;;;;6.77;4.70;;;;;;;21.32;96.56;100896.81;5013483;28;20816;-70
2022/08/14 05:08:17;;;;;;;10.13;5.67;;;;;;;21.33;97.00;100885.41;5013699;28;20488;-70
2022/08/14 05:10:47;;;;;;;10.60;5.13;;;;;;;21.37;97.22;100885.50;5013574;28;20456;-70
2022/08/14 05:13:14;;;;;;;11.43;5.57;;;;;;;21.42;97.04;100888.72;5013644;28;20493;-70
2022/08/14 05:15:43;;;;;;;14.80;5.30;;;;;;;21.49;97.41;100887.28;5013704;28;20436;-70
2022/08/14 05:18:12;;;;;;;6.90;4.17;;;;;;;21.54;97.15;100881.44;5013639;28;20475;-70
2022/08/14 05:20:41;;;;;;;6.57;4.27;;;;;;;21.62;97.52;100875.69;5013570;28;20460;-71
2022/08/14 05:23:09;;;;;;;7.90;4.97;;;;;;;21.72;97.51;100882.53;5013952;28;20517;-70
2022/08/14 05:25:36;;;;;;;6.50;4.33;;;;;;;21.81;96.76;100883.06;5013563;28;20808;-73
2022/08/14 05:28:08;;;;;;;6.77;4.43;;;;;;;21.90;96.92;100888.34;5013447;28;20487;-71
2022/08/14 05:30:35;;;;;;;8.07;4.60;;;;;;;21.99;96.81;100877.81;5013468;28;20460;-70
2022/08/14 05:33:01;;;;;;;7.80;4.20;;;;;;;22.06;96.53;100871.63;5013141;28;20440;-70
2022/08/14 05:35:28;;;;;;;8.00;5.07;;;;;;;22.12;96.52;100870.97;5013418;28;20447;-74
2022/08/14 05:37:55;;;;;;;6.00;4.60;;;;;;;22.16;96.68;100869.03;5013439;28;20440;-71
2022/08/14 05:40:23;;;;;;;9.23;5.10;;;;;;;22.18;96.29;100868.69;5013533;28;20538;-70
2022/08/14 05:42:49;;;;;;;7.00;4.03;;;;;;;22.24;95.57;100858.91;5013371;28;20454;-69
2022/08/14 05:45:16;;;;;;;8.80;4.77;;;;;;;22.28;95.30;100858.97;5013357;28;20452;-69
2022/08/14 05:47:42;;;;;;;7.63;4.90;;;;;;;22.33;95.09;100864.16;5013160;28;20491;-69
2022/08/14 05:50:11;;;;;;;6.77;3.90;;;;;;;22.37;94.93;100859.47;5013223;28;20452;-69
2022/08/14 05:52:38;;;;;;;7.03;4.33;;;;;;;22.40;94.35;100859.53;5013262;28;20466;-69
2022/08/14 05:55:07;;;;;;;7.13;4.30;;;;;;;22.40;93.72;100854.00;5012998;28;20514;-69
2022/08/14 05:57:45;;;;;;;7.00;4.40;;;;;;;22.50;92.55;100846.22;5013208;28;20479;-69
2022/08/14 06:00:13;;;;;;;7.70;5.50;;;;;;;22.55;92.08;100851.41;5015687;28;20459;-69
2022/08/14 06:02:50;;;;;;;8.27;5.13;;;;;;;22.65;91.49;100853.50;5017642;28;20508;-69
2022/08/14 06:05:17;;;;;;;6.63;4.60;;;;;;;22.69;91.37;100854.34;5016728;28;20431;-69
2022/08/14 06:07:44;;;;;;;7.93;5.03;;;;;;;22.73;91.06;100849.66;5016872;28;20487;-69
2022/08/14 06:10:11;;;;;;;7.27;4.47;;;;;;;22.75;91.72;100854.78;5016854;28;20506;-69
2022/08/14 06:12:39;;;;;;;9.10;4.83;;;;;;;22.76;92.15;100851.66;5016823;28;20447;-69
2022/08/14 06:15:07;;;;;;;5.90;4.20;;;;;;;22.79;92.32;100850.91;5016851;28;20478;-69
2022/08/14 06:17:43;;;;;;;8.23;3.60;;;;;;;22.80;92.23;100844.22;5016686;28;20452;-69
2022/08/14 06:20:10;;;;;;;8.53;4.43;;;;;;;22.83;92.72;100859.22;5016762;28;20521;-68
2022/08/14 06:22:37;;;;;;;7.70;4.80;;;;;;;22.83;92.67;100840.69;5016651;28;20451;-70
2022/08/14 06:25:04;;;;;;;7.63;4.33;;;;;;;22.86;92.41;100842.69;5016301;28;20839;-70
2022/08/14 06:27:35;;;;;;;9.53;4.90;;;;;;;22.91;91.62;100831.34;5016575;28;20515;-70
2022/08/14 06:30:04;;;;;;;7.50;3.77;;;;;;;23.02;90.90;100834.22;5016499;28;20491;-70
2022/08/14 06:32:30;;;;;;;7.97;4.47;;;;;;;23.12;90.49;100832.72;5016438;28;20502;-70
2022/08/14 06:34:57;;;;;;;7.53;4.73;;;;;;;23.19;90.04;100835.53;5016526;28;20450;-70
2022/08/14 06:37:23;;;;;;;9.50;5.10;;;;;;;23.29;88.79;100837.63;5016394;28;20470;-72
2022/08/14 06:39:50;;;;;;;6.83;4.50;;;;;;;23.33;87.79;100841.22;5016304;28;20459;-70
2022/08/14 06:42:16;;;;;;;6.50;4.63;;;;;;;23.43;86.97;100836.94;5016377;28;20448;-70
2022/08/14 06:44:43;;;;;;;8.03;4.70;;;;;;;23.54;86.47;100834.25;5015985;28;21011;-70
2022/08/14 06:47:11;;;;;;;11.43;5.03;;;;;;;23.64;86.17;100836.31;5016171;28;20470;-70
2022/08/14 06:49:38;;;;;;;9.97;4.93;;;;;;;23.72;84.40;100837.97;5016125;28;20466;-69
2022/08/14 06:52:04;;;;;;;6.03;3.47;;;;;;;23.80;84.43;100833.28;5016099;28;20487;-69
2022/08/14 06:54:31;;;;;;;7.13;4.33;;;;;;;23.86;84.38;100835.34;5016711;28;20440;-69
2022/08/14 06:56:57;;;;;;;8.50;4.90;;;;;;;23.94;83.87;100838.13;5016390;28;20440;-69
2022/08/14 06:59:24;;;;;;;7.20;3.90;;;;;;;24.02;83.70;100835.00;5016020;28;20450;-69
2022/08/14 07:07:20;;;;;;;7.37;4.40;;;;;;;24.16;85.04;100824.00;5015909;28;20479;-68
2022/08/14 07:09:46;;;;;;;10.73;4.60;;;;;;;24.19;84.63;100827.19;5015774;28;20448;-69
2022/08/14 07:12:13;;;;;;;9.73;5.30;;;;;;;24.22;84.70;100830.00;5015123;28;20468;-68
2022/08/14 07:14:39;;;;;;;10.97;4.83;;;;;;;24.27;84.62;100835.16;5015751;28;20451;-68
2022/08/14 07:17:06;;;;;;;7.10;4.17;;;;;;;24.31;84.26;100827.66;5015699;28;20441;-69
2022/08/14 07:19:32;;;;;;;9.50;5.70;;;;;;;24.38;84.38;100833.25;5015700;28;20439;-68
2022/08/14 07:22:00;;;;;;;13.03;4.93;;;;;;;24.41;84.86;100828.91;5015615;28;20468;-68
2022/08/14 07:24:27;;;;;;;9.73;4.60;;;;;;;24.38;83.89;100824.16;5015558;28;20510;-69
2022/08/14 07:26:53;;;;;;;7.20;4.10;;;;;;;24.39;83.60;100821.00;5015229;28;20968;-69
2022/08/14 07:29:21;;;;;;;12.03;5.47;;;;;;;24.46;83.82;100814.69;5015208;28;20484;-69
2022/08/14 07:31:47;;;;;;;7.23;5.07;;;;;;;24.51;82.75;100806.00;5015397;28;20472;-69
2022/08/14 07:34:14;;;;;;;7.70;4.50;;;;;;;24.57;82.00;100815.53;5015363;28;20451;-69
2022/08/14 07:36:40;;;;;;;7.73;4.57;;;;;;;24.65;81.38;100805.25;5015411;28;20451;-69
2022/08/14 07:39:08;;;;;;;6.93;4.13;;;;;;;24.76;80.17;100803.31;5015503;28;20444;-69
2022/08/14 07:41:34;;;;;;;6.73;3.60;;;;;;;24.87;78.53;100817.94;5014833;28;20981;-68
2022/08/14 07:44:01;;;;;;;6.80;4.43;;;;;;;25.01;78.06;100810.84;5015184;28;20451;-68
2022/08/14 07:46:27;;;;;;;8.27;4.27;;;;;;;25.12;77.76;100806.94;5014846;28;20861;-69
2022/08/14 07:48:55;;;;;;;8.33;5.07;;;;;;;25.19;78.77;100806.16;5015055;28;20500;-69
2022/08/14 07:51:22;;;;;;;8.13;4.97;;;;;;;25.24;78.64;100796.66;5014913;28;20475;-69
2022/08/14 07:53:49;;;;;;;8.57;4.60;;;;;;;25.32;77.98;100799.03;5014672;28;20448;-69
2022/08/14 07:56:18;;;;;;;11.33;4.60;;;;;;;25.38;76.38;100804.97;5014937;28;20869;-70
2022/08/14 07:58:44;;;;;;;8.57;4.47;;;;;;;25.48;75.79;100801.38;5014494;28;20933;-72
2022/08/14 08:01:12;;;;;;;8.23;4.20;;;;;;;25.59;74.51;100804.97;5014467;28;20546;-74
2022/08/14 08:03:42;;;;;;;8.43;4.47;;;;;;;25.66;74.01;100795.81;5014723;28;20440;-71
2022/08/14 08:06:09;;;;;;;9.47;4.60;;;;;;;25.73;75.13;100798.59;5014734;28;20447;-71
2022/08/14 08:08:35;;;;;;;8.50;4.37;;;;;;;25.79;74.79;100794.22;5014666;28;20511;-70
2022/08/14 08:11:02;;;;;;;6.90;4.10;;;;;;;25.83;74.74;100792.25;5014629;28;20495;-72
2022/08/14 08:13:33;;;;;;;6.60;3.63;;;;;;;25.79;70.63;100788.69;5014590;28;20459;-69
2022/08/14 08:16:01;;;;;;;5.90;3.60;;;;;;;25.84;70.28;100784.72;5014636;28;20436;-69
2022/08/14 08:18:28;;;;;;;7.17;3.40;;;;;;;25.88;70.54;100786.28;5014231;28;20448;-69
2022/08/14 08:20:55;;;;;;;5.07;3.43;;;;;;;25.86;69.05;100788.69;5014186;28;20829;-69
2022/08/14 08:23:24;;;;;;;12.80;3.60;;;;;;;25.94;69.54;100792.19;5014492;28;20523;-69
2022/08/14 08:25:52;;;;;;;5.70;3.50;;;;;;;25.99;70.45;100785.47;5014493;28;20455;-69
2022/08/14 08:28:20;;;;;;;7.00;4.10;;;;;;;26.03;70.73;100789.00;5014003;28;20996;-69
2022/08/14 08:30:51;;;;;;;5.50;3.63;;;;;;;26.02;70.90;100790.22;5014240;28;20468;-69
2022/08/14 08:33:19;;;;;;;5.27;3.20;;;;;;;26.02;71.23;100795.75;5014454;28;20800;-70
2022/08/14 08:35:47;;;;;;;8.77;5.27;;;;;;;26.02;69.70;100799.31;5014206;28;20471;-69
2022/08/14 08:38:16;;;;;;;7.43;4.00;;;;;;;26.16;69.42;100795.69;5014329;28;20441;-69
2022/08/14 08:40:46;;;;;;;7.30;4.03;;;;;;;26.26;71.44;100789.34;5013790;28;21047;-69
2022/08/14 08:43:19;;;;;;;6.57;4.07;;;;;;;26.31;70.78;100780.56;5014706;28;20443;-69
2022/08/14 08:45:55;;;;;;;5.33;3.33;;;;;;;26.36;69.08;100774.59;5014450;28;20435;-69
2022/08/14 08:48:22;;;;;;;6.53;3.80;;;;;;;26.42;69.22;100775.75;5014136;28;20472;-69
2022/08/14 08:50:49;;;;;;;9.00;3.50;;;;;;;26.50;69.47;100775.75;5013944;28;20464;-69
2022/08/14 08:53:16;;;;;;;9.90;4.30;;;;;;;26.61;68.80;100771.72;5013826;28;20448;-69
2022/08/14 08:55:45;;;;;;;5.20;3.30;;;;;;;26.71;70.07;100770.06;5014033;28;20448;-69
2022/08/14 08:58:14;;;;;;;7.77;4.23;;;;;;;26.74;69.72;100769.25;5013620;28;20444;-69
2022/08/14 09:00:42;;;;;;;6.67;4.00;;;;;;;26.84;69.07;100773.94;5013813;28;20494;-69
2022/08/14 09:03:14;;;;;;;9.03;3.83;;;;;;;26.84;68.35;100764.81;5013805;28;20455;-69
2022/08/14 09:05:50;;;;;;;8.13;4.80;;;;;;;27.02;67.86;100771.03;5013855;28;20463;-69
2022/08/14 09:08:19;;;;;;;5.77;3.97;;;;;;;27.14;66.40;100758.66;5014039;28;20464;-72
2022/08/14 09:10:46;;;;;;;6.77;3.80;;;;;;;27.24;67.42;100762.53;5013718;28;20834;-71
2022/08/14 09:13:14;;;;;;;5.13;3.60;;;;;;;27.34;63.87;100761.66;5013703;28;20450;-69
2022/08/14 09:15:42;;;;;;;6.40;4.20;;;;;;;27.46;64.28;100758.34;5013363;28;20502;-69
2022/08/14 09:18:11;;;;;;;6.60;4.00;;;;;;;27.56;63.27;100760.22;5013614;28;20440;-69
2022/08/14 09:20:40;;;;;;;6.70;3.70;;;;;;;27.65;63.03;100754.19;5013532;28;20464;-70
2022/08/14 09:23:07;;;;;;;5.67;3.70;;;;;;;27.69;63.25;100749.38;5013640;28;20480;-69
2022/08/14 09:25:35;;;;;;;5.97;3.90;;;;;;;27.79;62.53;100747.69;5013276;28;20938;-69
2022/08/14 09:28:02;;;;;;;5.70;3.77;;;;;;;27.89;60.61;100747.59;5013468;28;20495;-69
2022/08/14 09:30:30;;;;;;;5.47;4.03;;;;;;;27.98;61.83;100740.69;5013431;28;20475;-69
2022/08/14 09:33:22;;;;;;;10.03;4.03;;;;;;;28.07;61.06;100743.78;5013514;28;20964;-69
2022/08/14 09:36:00;;;;;;;7.83;3.50;;;;;;;28.13;62.24;100744.91;5019913;28;20435;-70
2022/08/14 09:38:38;;;;;;;4.80;2.97;;;;;;;28.16;62.36;100742.06;5019966;28;20424;-70
2022/08/14 09:41:13;;;;;;;12.13;3.80;;;;;;;28.22;61.49;100742.38;5019646;28;20977;-69
2022/08/14 09:43:46;;;;;;;6.03;4.00;;;;;;;28.29;61.04;100738.69;5020195;28;20478;-69
2022/08/14 09:46:15;;;;;;;5.40;2.63;;;;;;;28.37;61.18;100734.66;5020018;28;20424;-69
2022/08/14 09:48:43;;;;;;;4.60;3.43;;;;;;;28.37;60.08;100726.28;5020113;28;20487;-69
2022/08/14 09:51:23;;;;;;;5.87;3.50;;;;;;;28.45;57.60;100726.97;5019540;28;20460;-69
2022/08/14 09:54:01;;;;;;;4.20;2.90;;;;;;;28.57;56.86;100735.56;5019753;28;20440;-69
2022/08/14 09:56:28;;;;;;;4.30;2.37;;;;;;;28.57;56.46;100723.63;5019864;28;20456;-69
2022/08/14 09:58:59;;;;;;;5.03;3.23;;;;;;;28.60;58.63;100720.78;5019864;28;20498;-69
2022/08/14 10:01:36;;;;;;;5.50;3.50;;;;;;;28.71;58.06;100714.25;5019846;28;20854;-70
2022/08/14 10:04:17;;;;;;;5.13;3.20;;;;;;;28.76;57.80;100719.34;5019859;28;20431;-70
2022/08/14 10:06:44;;;;;;;4.23;3.00;;;;;;;28.87;58.75;100717.19;5019875;28;20486;-70
2022/08/14 10:09:11;;;;;;;5.37;3.60;;;;;;;28.96;57.85;100719.47;5019750;28;20482;-70
2022/08/14 10:11:40;;;;;;;5.37;3.33;;;;;;;29.08;55.55;100714.03;5019578;28;21164;-70
2022/08/14 10:14:16;;;;;;;4.70;3.43;;;;;;;29.15;55.31;100702.75;5019384;28;20440;-69
2022/08/14 10:16:44;;;;;;;6.03;3.43;;;;;;;28.98;52.28;100703.84;5019685;28;20497;-70
2022/08/14 10:19:14;;;;;;;6.73;3.47;;;;;;;29.00;54.61;100695.06;5019338;28;20937;-69
2022/08/14 10:21:46;;;;;;;5.97;3.60;;;;;;;29.13;55.79;100688.47;5019866;28;20463;-70
2022/08/14 10:24:23;;;;;;;5.00;3.10;;;;;;;29.29;55.35;100684.97;5019625;28;20432;-69
2022/08/14 10:26:54;;;;;;;4.87;3.20;;;;;;;29.48;55.15;100682.63;5019968;28;20795;-70
2022/08/14 10:29:31;;;;;;;5.27;3.10;;;;;;;29.61;54.02;100681.56;5019334;28;20468;-71
2022/08/14 10:31:59;;;;;;;5.07;3.03;;;;;;;29.77;52.87;100680.84;5019213;28;20835;-71
2022/08/14 10:34:31;;;;;;;4.97;3.53;;;;;;;29.82;53.16;100666.38;5019248;28;20824;-72
2022/08/14 10:37:04;;;;;;;7.13;3.80;;;;;;;29.90;55.58;100664.22;5019553;28;20431;-72
2022/08/14 10:39:30;;;;;;;5.30;3.57;;;;;;;29.97;50.64;100661.28;5019595;28;20424;-71
2022/08/14 10:42:04;;;;;;;5.30;3.40;;;;;;;30.09;53.07;100649.44;5019049;28;20972;-71
2022/08/14 10:44:34;;;;;;;5.87;3.40;;;;;;;30.06;50.92;100647.53;5019460;28;20432;-71
2022/08/14 10:47:06;;;;;;;7.00;3.50;;;;;;;30.17;51.77;100646.50;5015178;28;20448;-71
2022/08/14 10:49:34;;;;;;;5.37;3.37;;;;;;;30.34;50.99;100637.69;5016554;28;20464;-71
2022/08/14 10:52:05;;;;;;;5.70;3.17;;;;;;;30.42;51.77;100638.31;5016035;28;20456;-71
2022/08/14 10:54:37;;;;;;;4.33;3.07;;;;;;;30.44;49.27;100637.88;5016406;28;20441;-71
2022/08/14 10:57:16;;;;;;;4.60;2.47;;;;;;;30.36;50.40;100632.44;5016234;28;20459;-72
2022/08/14 10:59:44;;;;;;;6.30;3.60;;;;;;;30.37;50.70;100633.22;5016022;28;20526;-70
2022/08/14 11:02:23;;;;;;;5.20;2.37;;;;;;;30.55;49.91;100630.03;5015648;28;20468;-70
2022/08/14 11:05:07;;;;;;;4.97;3.60;;;;;;;30.55;47.42;100632.81;5016082;28;20441;-71
2022/08/14 11:07:35;;;;;;;5.43;2.90;;;;;;;30.78;47.95;100627.06;5016015;28;20491;-71
2022/08/14 11:10:07;;;;;;;5.13;2.97;;;;;;;30.93;46.40;100623.88;5015849;28;20491;-72
2022/08/14 11:12:46;;;;;;;4.67;3.20;;;;;;;31.30;46.05;100623.28;5015946;28;20432;-71
2022/08/14 11:15:15;;;;;;;4.67;2.83;;;;;;;31.59;45.73;100628.06;5015805;28;20440;-70
2022/08/14 11:17:41;;;;;;;5.03;2.93;;;;;;;31.92;46.52;100625.09;5015785;28;20490;-70
2022/08/14 11:20:11;;;;;;;4.00;2.50;;;;;;;32.04;45.52;100624.31;5015652;28;20440;-70
2022/08/14 11:22:40;;;;;;;4.53;3.00;;;;;;;32.29;45.77;100624.31;5015279;28;20941;-71
2022/08/14 11:25:10;;;;;;;4.10;2.73;;;;;;;32.58;44.15;100623.38;5015861;28;20875;-71
2022/08/14 11:27:39;;;;;;;7.80;2.97;;;;;;;33.36;43.32;100626.25;5015235;28;20890;-70
2022/08/14 11:30:09;;;;;;;3.90;2.00;;;;;;;34.37;41.44;100626.03;5015357;28;20574;-72
2022/08/14 11:32:36;;;;;;;5.23;2.13;;;;;;;34.99;38.95;100630.69;5014921;28;20459;-70
2022/08/14 11:35:04;;;;;;;4.07;2.27;;;;;;;34.97;37.30;100630.38;5014848;28;20432;-70
2022/08/14 11:37:33;;;;;;;4.20;2.20;;;;;;;35.42;38.22;100631.56;5014690;28;20448;-70
2022/08/14 11:40:00;;;;;;;3.60;2.10;;;;;;;36.07;38.16;100625.31;5015282;28;20531;-72
2022/08/14 11:42:28;;;;;;;3.73;2.27;;;;;;;36.35;35.68;100623.16;5015520;28;20460;-72
2022/08/14 11:44:59;;;;;;;4.20;2.63;;;;;;;36.75;35.27;100621.97;5015243;28;20476;-72